EZY1485 EGCC-EIDW
Flight info
| Callsign | EZY1485 |
|---|---|
| Flight time | 0h 32m |
| Altitude | 28000 |
| Route | EKLAD Y53 WAL L10 PENIL M144 BAGSO BAGSO3R |
| Aircraft | A20N/M-SDE2E3FGHIRWXY/LB1 |
Departure
| Time | 2026-05-04 15:30 |
|---|---|
| Airport | Manchester Airport (EGCC) |
Arrival
| Time | 2026-05-04 16:02 |
|---|---|
| Airport | Dublin Airport (EIDW) |
| Time | Latitude | Longitude | Altitude | Speed | Heading |
|---|---|---|---|---|---|
| 2026-05-04 15:07 | 53.36051 | -2.27134 | 260 ft | 0 kts | 71° |
| 2026-05-04 15:17 | 53.36048 | -2.27148 | 232 ft | 1 kts | 71° |
| 2026-05-04 15:17 | 53.36045 | -2.27160 | 236 ft | 1 kts | 71° |
| 2026-05-04 15:18 | 53.36043 | -2.27173 | 236 ft | 1 kts | 71° |
| 2026-05-04 15:18 | 53.36040 | -2.27185 | 236 ft | 1 kts | 71° |
| 2026-05-04 15:18 | 53.36038 | -2.27197 | 235 ft | 1 kts | 71° |
| 2026-05-04 15:19 | 53.36033 | -2.27222 | 237 ft | 1 kts | 71° |
| 2026-05-04 15:19 | 53.36030 | -2.27234 | 237 ft | 1 kts | 71° |
| 2026-05-04 15:19 | 53.36025 | -2.27259 | 237 ft | 1 kts | 71° |
| 2026-05-04 15:20 | 53.36023 | -2.27269 | 237 ft | 0 kts | 71° |
| 2026-05-04 15:23 | 53.36022 | -2.27252 | 232 ft | 3 kts | 101° |
| 2026-05-04 15:23 | 53.36001 | -2.27238 | 233 ft | 5 kts | 175° |
| 2026-05-04 15:23 | 53.35956 | -2.27233 | 232 ft | 8 kts | 178° |
| 2026-05-04 15:24 | 53.35825 | -2.27253 | 236 ft | 11 kts | 222° |
| 2026-05-04 15:24 | 53.35700 | -2.27189 | 233 ft | 0 kts | 141° |
| 2026-05-04 15:26 | 53.35685 | -2.27169 | 235 ft | 6 kts | 141° |
| 2026-05-04 15:26 | 53.35645 | -2.27114 | 237 ft | 9 kts | 141° |
| 2026-05-04 15:26 | 53.35509 | -2.26934 | 237 ft | 1 kts | 142° |
| 2026-05-04 15:27 | 53.35485 | -2.26902 | 234 ft | 8 kts | 144° |
| 2026-05-04 15:27 | 53.35372 | -2.27032 | 233 ft | 14 kts | 230° |
| 2026-05-04 15:28 | 53.35193 | -2.27239 | 234 ft | 19 kts | 192° |
| 2026-05-04 15:28 | 53.35059 | -2.27285 | 232 ft | 21 kts | 199° |
| 2026-05-04 15:28 | 53.34564 | -2.28240 | 232 ft | 113 kts | 230° |
| 2026-05-04 15:29 | 53.33967 | -2.29469 | 376 ft | 144 kts | 232° |
| 2026-05-04 15:30 | 53.31729 | -2.35089 | 2543 ft | 169 kts | 270° |
| 2026-05-04 15:30 | 53.32395 | -2.41938 | 4090 ft | 233 kts | 273° |
| 2026-05-04 15:31 | 53.31770 | -2.47718 | 5718 ft | 264 kts | 255° |
| 2026-05-04 15:31 | 53.31257 | -2.50691 | 6804 ft | 268 kts | 253° |
| 2026-05-04 15:32 | 53.29569 | -2.59880 | 9935 ft | 283 kts | 253° |
| 2026-05-04 15:32 | 53.28343 | -2.66517 | 11115 ft | 321 kts | 253° |
| 2026-05-04 15:33 | 53.26970 | -2.73936 | 12576 ft | 340 kts | 253° |
| 2026-05-04 15:34 | 53.26841 | -2.85593 | 15101 ft | 356 kts | 297° |
| 2026-05-04 15:34 | 53.28236 | -2.89048 | 15864 ft | 361 kts | 306° |
| 2026-05-04 15:34 | 53.31328 | -2.95830 | 17432 ft | 371 kts | 307° |
| 2026-05-04 15:35 | 53.34390 | -3.02608 | 18829 ft | 381 kts | 307° |
| 2026-05-04 15:35 | 53.35985 | -3.06185 | 19463 ft | 386 kts | 307° |
| 2026-05-04 15:35 | 53.37596 | -3.09814 | 20085 ft | 391 kts | 307° |
| 2026-05-04 15:36 | 53.40862 | -3.17249 | 21393 ft | 400 kts | 307° |
| 2026-05-04 15:36 | 53.42487 | -3.21068 | 22043 ft | 404 kts | 306° |
| 2026-05-04 15:36 | 53.44127 | -3.24946 | 22689 ft | 408 kts | 307° |
| 2026-05-04 15:37 | 53.45779 | -3.28849 | 23310 ft | 413 kts | 307° |
| 2026-05-04 15:37 | 53.47452 | -3.32801 | 23880 ft | 417 kts | 307° |
| 2026-05-04 15:37 | 53.49119 | -3.36737 | 24435 ft | 420 kts | 307° |
| 2026-05-04 15:37 | 53.50817 | -3.40750 | 24980 ft | 423 kts | 307° |
| 2026-05-04 15:38 | 53.52528 | -3.44796 | 25510 ft | 425 kts | 307° |
| 2026-05-04 15:38 | 53.54248 | -3.48870 | 26028 ft | 428 kts | 307° |
| 2026-05-04 15:38 | 53.55977 | -3.52972 | 26537 ft | 431 kts | 308° |
| 2026-05-04 15:38 | 53.57716 | -3.57105 | 27035 ft | 434 kts | 308° |
| 2026-05-04 15:39 | 53.59449 | -3.61290 | 27512 ft | 438 kts | 304° |
| 2026-05-04 15:39 | 53.60847 | -3.65884 | 27838 ft | 445 kts | 294° |
| 2026-05-04 15:39 | 53.62017 | -3.76144 | 28055 ft | 451 kts | 275° |
| 2026-05-04 15:40 | 53.62219 | -3.81385 | 28064 ft | 451 kts | 276° |
| 2026-05-04 15:40 | 53.62645 | -3.91901 | 28062 ft | 450 kts | 276° |
| 2026-05-04 15:41 | 53.63070 | -4.02459 | 28065 ft | 450 kts | 276° |
| 2026-05-04 15:41 | 53.63481 | -4.12958 | 28062 ft | 450 kts | 276° |
| 2026-05-04 15:42 | 53.63884 | -4.23503 | 28061 ft | 450 kts | 276° |
| 2026-05-04 15:42 | 53.64211 | -4.32243 | 28059 ft | 449 kts | 276° |
| 2026-05-04 15:43 | 53.64659 | -4.44452 | 28062 ft | 449 kts | 275° |
| 2026-05-04 15:43 | 53.65034 | -4.54958 | 28063 ft | 449 kts | 275° |
| 2026-05-04 15:44 | 53.65340 | -4.63748 | 28068 ft | 449 kts | 275° |
| 2026-05-04 15:44 | 53.65517 | -4.68935 | 27899 ft | 449 kts | 275° |
| 2026-05-04 15:44 | 53.65695 | -4.74181 | 27352 ft | 449 kts | 275° |
| 2026-05-04 15:44 | 53.65872 | -4.79450 | 26470 ft | 452 kts | 275° |
| 2026-05-04 15:45 | 53.66048 | -4.84766 | 25647 ft | 453 kts | 275° |
| 2026-05-04 15:45 | 53.66219 | -4.90018 | 25129 ft | 445 kts | 275° |
| 2026-05-04 15:45 | 53.66387 | -4.95193 | 24511 ft | 440 kts | 275° |
| 2026-05-04 15:45 | 53.66552 | -5.00327 | 23907 ft | 436 kts | 275° |
| 2026-05-04 15:46 | 53.66713 | -5.05407 | 23288 ft | 431 kts | 274° |
| 2026-05-04 15:46 | 53.66870 | -5.10408 | 22701 ft | 424 kts | 274° |
| 2026-05-04 15:46 | 53.67022 | -5.15336 | 22120 ft | 417 kts | 274° |
| 2026-05-04 15:46 | 53.67167 | -5.20184 | 21542 ft | 412 kts | 274° |
| 2026-05-04 15:47 | 53.67304 | -5.24883 | 20981 ft | 406 kts | 274° |
| 2026-05-04 15:47 | 53.67439 | -5.29609 | 20419 ft | 401 kts | 274° |
| 2026-05-04 15:47 | 53.67572 | -5.34285 | 19867 ft | 397 kts | 274° |
| 2026-05-04 15:47 | 53.67701 | -5.38901 | 19300 ft | 392 kts | 274° |
| 2026-05-04 15:48 | 53.67827 | -5.43480 | 18742 ft | 388 kts | 274° |
| 2026-05-04 15:48 | 53.67909 | -5.48015 | 18177 ft | 385 kts | 269° |
| 2026-05-04 15:48 | 53.67127 | -5.56742 | 17072 ft | 375 kts | 258° |
| 2026-05-04 15:49 | 53.66561 | -5.61004 | 16531 ft | 370 kts | 258° |
| 2026-05-04 15:49 | 53.66010 | -5.65204 | 16012 ft | 365 kts | 258° |
| 2026-05-04 15:49 | 53.65465 | -5.69368 | 15480 ft | 361 kts | 258° |
| 2026-05-04 15:49 | 53.64924 | -5.73489 | 14968 ft | 358 kts | 258° |
| 2026-05-04 15:50 | 53.64387 | -5.77558 | 14448 ft | 354 kts | 258° |
| 2026-05-04 15:50 | 53.63853 | -5.81589 | 13953 ft | 351 kts | 258° |
| 2026-05-04 15:50 | 53.63322 | -5.85583 | 13415 ft | 347 kts | 258° |
| 2026-05-04 15:50 | 53.62796 | -5.89525 | 12929 ft | 342 kts | 258° |
| 2026-05-04 15:51 | 53.62274 | -5.93426 | 12448 ft | 338 kts | 258° |
| 2026-05-04 15:51 | 53.61760 | -5.97257 | 11967 ft | 334 kts | 258° |
| 2026-05-04 15:51 | 53.61250 | -6.01057 | 11491 ft | 330 kts | 258° |
| 2026-05-04 15:51 | 53.60744 | -6.04807 | 11024 ft | 327 kts | 258° |
| 2026-05-04 15:52 | 53.60241 | -6.08532 | 10551 ft | 324 kts | 258° |
| 2026-05-04 15:52 | 53.59776 | -6.12079 | 10351 ft | 313 kts | 259° |
| 2026-05-04 15:52 | 53.59402 | -6.15653 | 10212 ft | 299 kts | 261° |
| 2026-05-04 15:52 | 53.59084 | -6.19032 | 10088 ft | 287 kts | 262° |
| 2026-05-04 15:53 | 53.58774 | -6.22329 | 9730 ft | 283 kts | 261° |
| 2026-05-04 15:53 | 53.58455 | -6.25587 | 9346 ft | 281 kts | 261° |
| 2026-05-04 15:53 | 53.58127 | -6.28819 | 8941 ft | 279 kts | 261° |
| 2026-05-04 15:53 | 53.57798 | -6.32017 | 8562 ft | 276 kts | 261° |
| 2026-05-04 15:54 | 53.57472 | -6.35188 | 8173 ft | 274 kts | 261° |
| 2026-05-04 15:54 | 53.57242 | -6.38355 | 7768 ft | 272 kts | 273° |
| 2026-05-04 15:54 | 53.57595 | -6.41462 | 7375 ft | 269 kts | 279° |
| 2026-05-04 15:54 | 53.57708 | -6.44598 | 7003 ft | 267 kts | 272° |
| 2026-05-04 15:55 | 53.57617 | -6.47698 | 6611 ft | 266 kts | 255° |
| 2026-05-04 15:55 | 53.56967 | -6.50606 | 6209 ft | 265 kts | 248° |
| 2026-05-04 15:55 | 53.56271 | -6.53455 | 5817 ft | 263 kts | 248° |
| 2026-05-04 15:55 | 53.55577 | -6.56294 | 5425 ft | 262 kts | 248° |
| 2026-05-04 15:56 | 53.54858 | -6.59099 | 5030 ft | 261 kts | 241° |
| 2026-05-04 15:56 | 53.53655 | -6.61301 | 4634 ft | 262 kts | 214° |
| 2026-05-04 15:56 | 53.51962 | -6.62288 | 4396 ft | 256 kts | 189° |
| 2026-05-04 15:56 | 53.50218 | -6.62652 | 4300 ft | 247 kts | 188° |
| 2026-05-04 15:57 | 53.48545 | -6.62666 | 4195 ft | 237 kts | 166° |
| 2026-05-04 15:57 | 53.47149 | -6.61377 | 4086 ft | 226 kts | 136° |
| 2026-05-04 15:57 | 53.46125 | -6.59478 | 3993 ft | 215 kts | 123° |
| 2026-05-04 15:57 | 53.45508 | -6.57312 | 3955 ft | 196 kts | 106° |
| 2026-05-04 15:58 | 53.45231 | -6.55164 | 3844 ft | 182 kts | 97° |
| 2026-05-04 15:58 | 53.45090 | -6.53133 | 3738 ft | 169 kts | 93° |
| 2026-05-04 15:58 | 53.44991 | -6.51117 | 3226 ft | 183 kts | 92° |
| 2026-05-04 15:58 | 53.44864 | -6.48949 | 2825 ft | 187 kts | 94° |
| 2026-05-04 15:59 | 53.44744 | -6.46792 | 2545 ft | 183 kts | 93° |
| 2026-05-04 15:59 | 53.44629 | -6.44724 | 2292 ft | 177 kts | 93° |
| 2026-05-04 15:59 | 53.44519 | -6.42706 | 2048 ft | 171 kts | 93° |
| 2026-05-04 15:59 | 53.44411 | -6.40755 | 1820 ft | 164 kts | 92° |
| 2026-05-04 16:00 | 53.44310 | -6.38936 | 1607 ft | 149 kts | 92° |
| 2026-05-04 16:00 | 53.44219 | -6.37265 | 1395 ft | 139 kts | 92° |
| 2026-05-04 16:00 | 53.44134 | -6.35717 | 1198 ft | 128 kts | 92° |
| 2026-05-04 16:00 | 53.44054 | -6.34221 | 1019 ft | 128 kts | 93° |
| 2026-05-04 16:01 | 53.43972 | -6.32753 | 838 ft | 124 kts | 94° |
| 2026-05-04 16:01 | 53.43895 | -6.31317 | 674 ft | 124 kts | 95° |
| 2026-05-04 16:01 | 53.43816 | -6.29886 | 509 ft | 122 kts | 96° |
| 2026-05-04 16:01 | 53.43738 | -6.28464 | 337 ft | 120 kts | 96° |
| 2026-05-04 16:02 | 53.43663 | -6.27089 | 244 ft | 112 kts | 96° |
| 2026-05-04 16:02 | 53.43593 | -6.25912 | 225 ft | 83 kts | 94° |
| 2026-05-04 16:02 | 53.43451 | -6.25009 | 221 ft | 0 kts | 122° |
| 2026-05-04 16:03 | 53.43442 | -6.24998 | 221 ft | 4 kts | 149° |
| 2026-05-04 16:04 | 53.43406 | -6.25014 | 222 ft | 7 kts | 218° |
| 2026-05-04 16:04 | 53.43398 | -6.25282 | 219 ft | 16 kts | 278° |
| 2026-05-04 16:04 | 53.43405 | -6.25483 | 218 ft | 17 kts | 273° |
| 2026-05-04 16:05 | 53.43407 | -6.25534 | 218 ft | 3 kts | 274° |
| 2026-05-04 16:05 | 53.43406 | -6.25592 | 219 ft | 7 kts | 258° |
| 2026-05-04 16:05 | 53.43288 | -6.25602 | 222 ft | 12 kts | 160° |
| 2026-05-04 16:06 | 53.43207 | -6.25554 | 222 ft | 13 kts | 161° |
| 2026-05-04 16:06 | 53.42938 | -6.25367 | 224 ft | 14 kts | 128° |
| 2026-05-04 16:07 | 53.42957 | -6.25248 | 222 ft | 12 kts | 70° |
| 2026-05-04 16:07 | 53.42939 | -6.24733 | 220 ft | 7 kts | 88° |
| 2026-05-04 16:08 | 53.42983 | -6.24686 | 220 ft | 10 kts | 8° |
| 2026-05-04 16:08 | 53.43009 | -6.24681 | 223 ft | 0 kts | 5° |